sensor_id;sensor_type;location;lat;lon;timestamp;temperature;humidity
64499;SHT31;51087;55.718;21.122;2023-02-15T00:00:04;1.80;99.99
64499;SHT31;51087;55.718;21.122;2023-02-15T00:02:30;1.83;99.99
64499;SHT31;51087;55.718;21.122;2023-02-15T00:04:56;1.83;99.99
64499;SHT31;51087;55.718;21.122;2023-02-15T00:07:21;1.87;99.99
64499;SHT31;51087;55.718;21.122;2023-02-15T00:09:47;1.91;99.99
64499;SHT31;51087;55.718;21.122;2023-02-15T00:12:13;1.93;99.99
64499;SHT31;51087;55.718;21.122;2023-02-15T00:14:39;1.94;99.99
64499;SHT31;51087;55.718;21.122;2023-02-15T00:17:04;1.98;99.99
64499;SHT31;51087;55.718;21.122;2023-02-15T00:19:30;1.97;99.99
64499;SHT31;51087;55.718;21.122;2023-02-15T00:21:55;1.98;99.99
64499;SHT31;51087;55.718;21.122;2023-02-15T00:24:21;1.98;99.99
64499;SHT31;51087;55.718;21.122;2023-02-15T00:26:47;2.03;99.99
64499;SHT31;51087;55.718;21.122;2023-02-15T00:29:14;2.07;99.99
64499;SHT31;51087;55.718;21.122;2023-02-15T00:31:40;2.04;99.99
64499;SHT31;51087;55.718;21.122;2023-02-15T00:36:35;2.03;99.99
64499;SHT31;51087;55.718;21.122;2023-02-15T00:39:00;2.04;99.99
64499;SHT31;51087;55.718;21.122;2023-02-15T00:41:25;2.10;99.99
64499;SHT31;51087;55.718;21.122;2023-02-15T00:43:51;2.03;99.99
64499;SHT31;51087;55.718;21.122;2023-02-15T00:46:16;2.04;99.99
64499;SHT31;51087;55.718;21.122;2023-02-15T00:48:42;2.05;99.99
64499;SHT31;51087;55.718;21.122;2023-02-15T00:51:07;2.05;99.99
64499;SHT31;51087;55.718;21.122;2023-02-15T00:53:33;2.08;99.99
64499;SHT31;51087;55.718;21.122;2023-02-15T00:55:58;2.11;99.99
64499;SHT31;51087;55.718;21.122;2023-02-15T00:58:24;2.08;99.99
64499;SHT31;51087;55.718;21.122;2023-02-15T01:00:50;2.04;99.99
64499;SHT31;51087;55.718;21.122;2023-02-15T01:03:17;2.05;99.99
64499;SHT31;51087;55.718;21.122;2023-02-15T01:05:43;2.03;99.99
64499;SHT31;51087;55.718;21.122;2023-02-15T01:08:08;2.03;99.99
64499;SHT31;51087;55.718;21.122;2023-02-15T01:10:35;2.03;99.99
64499;SHT31;51087;55.718;21.122;2023-02-15T01:13:01;2.10;99.99
64499;SHT31;51087;55.718;21.122;2023-02-15T01:15:27;2.07;99.99
64499;SHT31;51087;55.718;21.122;2023-02-15T01:17:52;2.05;99.99
64499;SHT31;51087;55.718;21.122;2023-02-15T01:20:26;2.05;99.99
64499;SHT31;51087;55.718;21.122;2023-02-15T01:22:53;2.01;99.99
64499;SHT31;51087;55.718;21.122;2023-02-15T01:25:20;1.98;99.99
64499;SHT31;51087;55.718;21.122;2023-02-15T01:27:46;2.00;99.99
64499;SHT31;51087;55.718;21.122;2023-02-15T01:30:13;2.00;99.99
64499;SHT31;51087;55.718;21.122;2023-02-15T01:32:39;2.03;99.99
64499;SHT31;51087;55.718;21.122;2023-02-15T01:35:04;2.08;99.99
64499;SHT31;51087;55.718;21.122;2023-02-15T01:37:31;2.05;99.99
64499;SHT31;51087;55.718;21.122;2023-02-15T01:39:57;2.10;99.99
64499;SHT31;51087;55.718;21.122;2023-02-15T01:42:24;2.10;99.99
64499;SHT31;51087;55.718;21.122;2023-02-15T01:50:20;2.11;99.99
64499;SHT31;51087;55.718;21.122;2023-02-15T01:52:58;2.14;99.99
64499;SHT31;51087;55.718;21.122;2023-02-15T01:55:27;2.20;99.99
64499;SHT31;51087;55.718;21.122;2023-02-15T01:57:54;2.17;99.99
64499;SHT31;51087;55.718;21.122;2023-02-15T02:00:19;2.21;99.99
64499;SHT31;51087;55.718;21.122;2023-02-15T02:02:49;2.20;99.99
64499;SHT31;51087;55.718;21.122;2023-02-15T02:05:16;2.22;99.99
64499;SHT31;51087;55.718;21.122;2023-02-15T02:07:44;2.18;99.99
64499;SHT31;51087;55.718;21.122;2023-02-15T02:10:18;2.24;99.99
64499;SHT31;51087;55.718;21.122;2023-02-15T02:12:46;2.20;99.99
64499;SHT31;51087;55.718;21.122;2023-02-15T02:15:13;2.24;99.99
64499;SHT31;51087;55.718;21.122;2023-02-15T02:18:08;2.35;99.99
64499;SHT31;51087;55.718;21.122;2023-02-15T02:23:39;2.38;99.99
64499;SHT31;51087;55.718;21.122;2023-02-15T02:35:27;2.39;99.99
64499;SHT31;51087;55.718;21.122;2023-02-15T02:38:08;2.42;99.99
64499;SHT31;51087;55.718;21.122;2023-02-15T02:41:05;2.41;99.99
64499;SHT31;51087;55.718;21.122;2023-02-15T02:43:37;2.43;99.99
64499;SHT31;51087;55.718;21.122;2023-02-15T02:46:12;2.46;99.99
64499;SHT31;51087;55.718;21.122;2023-02-15T02:48:39;2.42;99.99
64499;SHT31;51087;55.718;21.122;2023-02-15T02:51:05;2.42;99.99
64499;SHT31;51087;55.718;21.122;2023-02-15T02:53:31;2.38;99.99
64499;SHT31;51087;55.718;21.122;2023-02-15T02:56:18;2.38;99.99
64499;SHT31;51087;55.718;21.122;2023-02-15T02:58:49;2.43;99.99
64499;SHT31;51087;55.718;21.122;2023-02-15T03:04:00;2.43;99.99
64499;SHT31;51087;55.718;21.122;2023-02-15T03:06:33;2.46;99.99
64499;SHT31;51087;55.718;21.122;2023-02-15T03:09:39;2.45;99.99
64499;SHT31;51087;55.718;21.122;2023-02-15T03:12:16;2.49;99.99
64499;SHT31;51087;55.718;21.122;2023-02-15T03:14:45;2.46;99.99
64499;SHT31;51087;55.718;21.122;2023-02-15T03:17:13;2.53;99.99
64499;SHT31;51087;55.718;21.122;2023-02-15T03:19:39;2.56;99.99
64499;SHT31;51087;55.718;21.122;2023-02-15T03:22:13;2.59;99.99
64499;SHT31;51087;55.718;21.122;2023-02-15T03:24:59;2.53;99.99
64499;SHT31;51087;55.718;21.122;2023-02-15T03:27:31;2.57;99.99
64499;SHT31;51087;55.718;21.122;2023-02-15T03:29:59;2.57;99.99
64499;SHT31;51087;55.718;21.122;2023-02-15T03:32:26;2.56;99.99
64499;SHT31;51087;55.718;21.122;2023-02-15T03:34:53;2.62;99.99
64499;SHT31;51087;55.718;21.122;2023-02-15T03:39:57;2.63;99.99
64499;SHT31;51087;55.718;21.122;2023-02-15T03:42:45;2.63;99.99
64499;SHT31;51087;55.718;21.122;2023-02-15T03:45:15;2.66;99.99
64499;SHT31;51087;55.718;21.122;2023-02-15T03:47:44;2.64;99.99
64499;SHT31;51087;55.718;21.122;2023-02-15T03:50:16;2.64;99.99
64499;SHT31;51087;55.718;21.122;2023-02-15T03:53:05;2.64;99.99
64499;SHT31;51087;55.718;21.122;2023-02-15T03:55:33;2.64;99.99
64499;SHT31;51087;55.718;21.122;2023-02-15T03:57:59;2.66;99.99
64499;SHT31;51087;55.718;21.122;2023-02-15T04:00:58;2.67;99.99
64499;SHT31;51087;55.718;21.122;2023-02-15T04:03:46;2.64;99.99
64499;SHT31;51087;55.718;21.122;2023-02-15T04:06:15;2.73;99.99
64499;SHT31;51087;55.718;21.122;2023-02-15T04:08:40;2.73;99.99
64499;SHT31;51087;55.718;21.122;2023-02-15T04:11:24;2.69;99.99
64499;SHT31;51087;55.718;21.122;2023-02-15T04:13:49;2.67;99.99
64499;SHT31;51087;55.718;21.122;2023-02-15T04:16:24;2.66;99.99
64499;SHT31;51087;55.718;21.122;2023-02-15T04:18:50;2.70;99.99
64499;SHT31;51087;55.718;21.122;2023-02-15T04:21:34;2.76;99.99
64499;SHT31;51087;55.718;21.122;2023-02-15T04:24:18;2.76;99.99
64499;SHT31;51087;55.718;21.122;2023-02-15T04:27:03;2.79;99.99
64499;SHT31;51087;55.718;21.122;2023-02-15T04:29:30;2.83;99.99
64499;SHT31;51087;55.718;21.122;2023-02-15T04:31:57;2.81;99.99
64499;SHT31;51087;55.718;21.122;2023-02-15T04:34:22;2.80;99.99
64499;SHT31;51087;55.718;21.122;2023-02-15T04:36:48;2.80;99.99
64499;SHT31;51087;55.718;21.122;2023-02-15T04:39:14;2.80;99.99
64499;SHT31;51087;55.718;21.122;2023-02-15T04:41:40;2.84;99.99
64499;SHT31;51087;55.718;21.122;2023-02-15T04:44:06;2.81;99.99
64499;SHT31;51087;55.718;21.122;2023-02-15T04:46:31;2.84;99.99
64499;SHT31;51087;55.718;21.122;2023-02-15T04:48:57;2.80;99.99
64499;SHT31;51087;55.718;21.122;2023-02-15T04:51:22;2.81;99.99
64499;SHT31;51087;55.718;21.122;2023-02-15T04:53:48;2.83;99.99
64499;SHT31;51087;55.718;21.122;2023-02-15T04:56:14;2.84;99.99
64499;SHT31;51087;55.718;21.122;2023-02-15T04:58:40;2.84;99.99
64499;SHT31;51087;55.718;21.122;2023-02-15T05:01:07;2.89;99.99
64499;SHT31;51087;55.718;21.122;2023-02-15T05:03:33;2.87;99.99
64499;SHT31;51087;55.718;21.122;2023-02-15T05:05:58;2.86;99.99
64499;SHT31;51087;55.718;21.122;2023-02-15T05:08:24;2.87;99.99
64499;SHT31;51087;55.718;21.122;2023-02-15T05:10:49;2.90;99.99
64499;SHT31;51087;55.718;21.122;2023-02-15T05:13:15;2.91;99.99
64499;SHT31;51087;55.718;21.122;2023-02-15T05:15:41;2.97;99.99
64499;SHT31;51087;55.718;21.122;2023-02-15T05:18:06;2.97;99.99
64499;SHT31;51087;55.718;21.122;2023-02-15T05:20:33;2.93;99.99
64499;SHT31;51087;55.718;21.122;2023-02-15T05:22:58;2.91;99.99
64499;SHT31;51087;55.718;21.122;2023-02-15T05:25:23;3.01;99.99
64499;SHT31;51087;55.718;21.122;2023-02-15T05:28:08;3.01;99.99
64499;SHT31;51087;55.718;21.122;2023-02-15T05:30:47;3.00;99.99
64499;SHT31;51087;55.718;21.122;2023-02-15T05:33:13;2.98;99.99
64499;SHT31;51087;55.718;21.122;2023-02-15T05:35:38;2.94;99.99
64499;SHT31;51087;55.718;21.122;2023-02-15T05:38:04;2.98;99.99
64499;SHT31;51087;55.718;21.122;2023-02-15T05:40:29;3.05;99.99
64499;SHT31;51087;55.718;21.122;2023-02-15T05:42:56;3.04;99.99
64499;SHT31;51087;55.718;21.122;2023-02-15T05:45:21;3.05;99.99
64499;SHT31;51087;55.718;21.122;2023-02-15T05:47:47;3.05;99.99
64499;SHT31;51087;55.718;21.122;2023-02-15T05:50:12;3.08;99.99
64499;SHT31;51087;55.718;21.122;2023-02-15T05:52:37;3.14;99.99
64499;SHT31;51087;55.718;21.122;2023-02-15T05:55:04;3.21;99.99
64499;SHT31;51087;55.718;21.122;2023-02-15T05:57:30;3.24;99.34
64499;SHT31;51087;55.718;21.122;2023-02-15T05:59:56;3.25;99.33
64499;SHT31;51087;55.718;21.122;2023-02-15T06:02:21;3.29;98.72
64499;SHT31;51087;55.718;21.122;2023-02-15T06:04:47;3.31;98.62
64499;SHT31;51087;55.718;21.122;2023-02-15T06:07:12;3.39;97.53
64499;SHT31;51087;55.718;21.122;2023-02-15T06:09:37;3.46;96.78
64499;SHT31;51087;55.718;21.122;2023-02-15T06:12:03;3.46;96.68
64499;SHT31;51087;55.718;21.122;2023-02-15T06:14:28;3.45;96.91
64499;SHT31;51087;55.718;21.122;2023-02-15T06:16:54;3.42;96.52
64499;SHT31;51087;55.718;21.122;2023-02-15T06:19:19;3.46;96.85
64499;SHT31;51087;55.718;21.122;2023-02-15T06:21:46;3.51;96.56
64499;SHT31;51087;55.718;21.122;2023-02-15T06:24:11;3.53;96.29
64499;SHT31;51087;55.718;21.122;2023-02-15T06:26:37;3.58;95.94
64499;SHT31;51087;55.718;21.122;2023-02-15T06:29:03;3.58;95.99
64499;SHT31;51087;55.718;21.122;2023-02-15T06:31:28;3.59;95.78
64499;SHT31;51087;55.718;21.122;2023-02-15T06:33:54;3.70;94.66
64499;SHT31;51087;55.718;21.122;2023-02-15T06:36:29;3.67;94.93
64499;SHT31;51087;55.718;21.122;2023-02-15T06:38:55;3.70;95.32
64499;SHT31;51087;55.718;21.122;2023-02-15T06:41:21;3.69;95.89
64499;SHT31;51087;55.718;21.122;2023-02-15T06:43:46;3.72;95.26
64499;SHT31;51087;55.718;21.122;2023-02-15T06:46:12;3.66;94.69
64499;SHT31;51087;55.718;21.122;2023-02-15T06:48:37;3.66;94.82
64499;SHT31;51087;55.718;21.122;2023-02-15T06:51:02;3.66;95.34
64499;SHT31;51087;55.718;21.122;2023-02-15T06:53:28;3.67;94.49
64499;SHT31;51087;55.718;21.122;2023-02-15T06:56:00;3.74;93.59
64499;SHT31;51087;55.718;21.122;2023-02-15T06:58:27;3.74;92.51
64499;SHT31;51087;55.718;21.122;2023-02-15T07:00:53;3.77;91.96
64499;SHT31;51087;55.718;21.122;2023-02-15T07:03:18;3.76;92.48
64499;SHT31;51087;55.718;21.122;2023-02-15T07:05:44;3.74;93.36
64499;SHT31;51087;55.718;21.122;2023-02-15T07:08:10;3.74;92.83
64499;SHT31;51087;55.718;21.122;2023-02-15T07:10:36;3.77;93.59
64499;SHT31;51087;55.718;21.122;2023-02-15T07:13:01;3.70;94.10
64499;SHT31;51087;55.718;21.122;2023-02-15T07:15:27;3.77;94.03
64499;SHT31;51087;55.718;21.122;2023-02-15T07:17:52;3.73;94.14
64499;SHT31;51087;55.718;21.122;2023-02-15T07:20:22;3.73;94.56
64499;SHT31;51087;55.718;21.122;2023-02-15T07:22:48;3.79;93.69
64499;SHT31;51087;55.718;21.122;2023-02-15T07:25:14;3.82;93.87
64499;SHT31;51087;55.718;21.122;2023-02-15T07:27:40;3.84;93.79
64499;SHT31;51087;55.718;21.122;2023-02-15T07:30:08;3.86;94.10
64499;SHT31;51087;55.718;21.122;2023-02-15T07:32:34;3.87;93.52
64499;SHT31;51087;55.718;21.122;2023-02-15T07:35:01;3.89;92.97
64499;SHT31;51087;55.718;21.122;2023-02-15T07:37:27;3.91;92.83
64499;SHT31;51087;55.718;21.122;2023-02-15T07:39:52;3.93;92.24
64499;SHT31;51087;55.718;21.122;2023-02-15T07:42:19;4.07;91.15
64499;SHT31;51087;55.718;21.122;2023-02-15T07:44:46;4.10;91.33
64499;SHT31;51087;55.718;21.122;2023-02-15T07:47:11;4.04;91.60
64499;SHT31;51087;55.718;21.122;2023-02-15T07:49:37;3.97;92.52
64499;SHT31;51087;55.718;21.122;2023-02-15T07:52:04;3.93;92.56
64499;SHT31;51087;55.718;21.122;2023-02-15T07:54:29;3.93;92.75
64499;SHT31;51087;55.718;21.122;2023-02-15T07:56:55;3.98;92.14
64499;SHT31;51087;55.718;21.122;2023-02-15T07:59:21;4.01;91.87
64499;SHT31;51087;55.718;21.122;2023-02-15T08:01:48;4.01;91.67
64499;SHT31;51087;55.718;21.122;2023-02-15T08:04:13;4.12;92.15
64499;SHT31;51087;55.718;21.122;2023-02-15T08:06:39;4.12;90.29
64499;SHT31;51087;55.718;21.122;2023-02-15T08:09:08;4.15;90.94
64499;SHT31;51087;55.718;21.122;2023-02-15T08:11:35;4.17;91.21
64499;SHT31;51087;55.718;21.122;2023-02-15T08:16:49;4.22;91.28
64499;SHT31;51087;55.718;21.122;2023-02-15T08:19:18;4.25;91.31
64499;SHT31;51087;55.718;21.122;2023-02-15T08:21:46;4.27;91.50
64499;SHT31;51087;55.718;21.122;2023-02-15T08:24:13;4.32;91.62
64499;SHT31;51087;55.718;21.122;2023-02-15T08:26:40;4.37;90.20
64499;SHT31;51087;55.718;21.122;2023-02-15T08:29:06;4.41;90.23
64499;SHT31;51087;55.718;21.122;2023-02-15T08:31:34;4.49;90.49
64499;SHT31;51087;55.718;21.122;2023-02-15T08:34:01;4.52;89.99
64499;SHT31;51087;55.718;21.122;2023-02-15T08:36:28;4.60;90.05
64499;SHT31;51087;55.718;21.122;2023-02-15T08:38:55;4.72;89.79
64499;SHT31;51087;55.718;21.122;2023-02-15T08:41:27;4.76;88.92
64499;SHT31;51087;55.718;21.122;2023-02-15T08:43:56;4.84;89.49
64499;SHT31;51087;55.718;21.122;2023-02-15T08:46:24;4.83;91.14
64499;SHT31;51087;55.718;21.122;2023-02-15T08:48:50;4.72;92.31
64499;SHT31;51087;55.718;21.122;2023-02-15T08:51:21;4.70;93.23
64499;SHT31;51087;55.718;21.122;2023-02-15T08:53:49;4.56;93.93
64499;SHT31;51087;55.718;21.122;2023-02-15T08:56:15;4.59;93.98
64499;SHT31;51087;55.718;21.122;2023-02-15T08:58:41;4.49;94.73
64499;SHT31;51087;55.718;21.122;2023-02-15T09:01:27;4.41;94.64
64499;SHT31;51087;55.718;21.122;2023-02-15T09:04:02;4.45;95.12
64499;SHT31;51087;55.718;21.122;2023-02-15T09:06:29;4.35;95.73
64499;SHT31;51087;55.718;21.122;2023-02-15T09:08:55;4.39;95.61
64499;SHT31;51087;55.718;21.122;2023-02-15T09:11:23;4.35;95.37
64499;SHT31;51087;55.718;21.122;2023-02-15T09:13:55;4.35;95.22
64499;SHT31;51087;55.718;21.122;2023-02-15T09:16:22;4.38;95.22
64499;SHT31;51087;55.718;21.122;2023-02-15T09:18:49;4.44;95.10
64499;SHT31;51087;55.718;21.122;2023-02-15T09:21:17;4.38;94.82
64499;SHT31;51087;55.718;21.122;2023-02-15T09:23:45;4.39;95.09
64499;SHT31;51087;55.718;21.122;2023-02-15T09:26:16;4.34;95.07
64499;SHT31;51087;55.718;21.122;2023-02-15T09:28:42;4.41;94.80
64499;SHT31;51087;55.718;21.122;2023-02-15T09:31:16;4.37;95.08
64499;SHT31;51087;55.718;21.122;2023-02-15T09:33:43;4.28;95.16
64499;SHT31;51087;55.718;21.122;2023-02-15T09:36:35;4.24;95.78
64499;SHT31;51087;55.718;21.122;2023-02-15T09:44:24;4.27;95.09
64499;SHT31;51087;55.718;21.122;2023-02-15T09:52:18;4.32;95.26
64499;SHT31;51087;55.718;21.122;2023-02-15T09:57:42;4.31;95.13
64499;SHT31;51087;55.718;21.122;2023-02-15T10:14:24;4.08;95.88
64499;SHT31;51087;55.718;21.122;2023-02-15T10:28:20;3.98;96.37
64499;SHT31;51087;55.718;21.122;2023-02-15T10:30:57;3.97;96.29
64499;SHT31;51087;55.718;21.122;2023-02-15T10:33:43;3.95;96.37
64499;SHT31;51087;55.718;21.122;2023-02-15T10:41:48;3.93;96.54
64499;SHT31;51087;55.718;21.122;2023-02-15T10:44:24;3.94;96.38
64499;SHT31;51087;55.718;21.122;2023-02-15T10:52:59;3.98;96.68
64499;SHT31;51087;55.718;21.122;2023-02-15T11:07:20;3.80;96.62
64499;SHT31;51087;55.718;21.122;2023-02-15T11:12:32;3.80;96.74
64499;SHT31;51087;55.718;21.122;2023-02-15T11:17:56;3.72;97.06
64499;SHT31;51087;55.718;21.122;2023-02-15T11:20:29;3.69;96.79
64499;SHT31;51087;55.718;21.122;2023-02-15T11:22:55;3.69;96.95
64499;SHT31;51087;55.718;21.122;2023-02-15T11:25:24;3.60;97.13
64499;SHT31;51087;55.718;21.122;2023-02-15T11:27:51;3.66;97.19
64499;SHT31;51087;55.718;21.122;2023-02-15T11:30:32;3.64;97.32
64499;SHT31;51087;55.718;21.122;2023-02-15T11:33:02;3.67;97.27
64499;SHT31;51087;55.718;21.122;2023-02-15T11:35:36;3.70;97.48
64499;SHT31;51087;55.718;21.122;2023-02-15T11:38:18;3.72;96.81
64499;SHT31;51087;55.718;21.122;2023-02-15T11:40:49;3.63;96.83
64499;SHT31;51087;55.718;21.122;2023-02-15T11:43:41;3.69;96.73
64499;SHT31;51087;55.718;21.122;2023-02-15T11:46:12;3.59;96.78
64499;SHT31;51087;55.718;21.122;2023-02-15T11:48:38;3.67;96.88
64499;SHT31;51087;55.718;21.122;2023-02-15T11:51:04;3.67;96.52
64499;SHT31;51087;55.718;21.122;2023-02-15T11:53:36;3.76;96.34
64499;SHT31;51087;55.718;21.122;2023-02-15T11:56:02;3.72;96.27
64499;SHT31;51087;55.718;21.122;2023-02-15T12:03:56;3.46;96.96
64499;SHT31;51087;55.718;21.122;2023-02-15T12:06:28;3.45;96.89
64499;SHT31;51087;55.718;21.122;2023-02-15T12:11:42;3.43;97.43
64499;SHT31;51087;55.718;21.122;2023-02-15T12:14:12;3.42;97.54
64499;SHT31;51087;55.718;21.122;2023-02-15T12:16:51;3.42;97.31
64499;SHT31;51087;55.718;21.122;2023-02-15T12:21:49;3.46;97.36
64499;SHT31;51087;55.718;21.122;2023-02-15T12:24:21;3.52;97.08
64499;SHT31;51087;55.718;21.122;2023-02-15T12:27:01;3.53;97.04
64499;SHT31;51087;55.718;21.122;2023-02-15T12:29:39;3.58;97.12
64499;SHT31;51087;55.718;21.122;2023-02-15T12:32:06;3.59;96.78
64499;SHT31;51087;55.718;21.122;2023-02-15T12:34:37;3.58;96.45
64499;SHT31;51087;55.718;21.122;2023-02-15T12:37:16;3.56;96.56
64499;SHT31;51087;55.718;21.122;2023-02-15T12:39:55;3.55;96.68
64499;SHT31;51087;55.718;21.122;2023-02-15T12:42:20;3.53;96.71
64499;SHT31;51087;55.718;21.122;2023-02-15T12:47:23;3.55;97.02
64499;SHT31;51087;55.718;21.122;2023-02-15T12:52:42;3.43;96.15
64499;SHT31;51087;55.718;21.122;2023-02-15T12:55:24;3.40;96.48
64499;SHT31;51087;55.718;21.122;2023-02-15T13:00:42;3.31;97.11
64499;SHT31;51087;55.718;21.122;2023-02-15T13:03:21;3.22;97.05
64499;SHT31;51087;55.718;21.122;2023-02-15T13:05:53;3.21;97.06
64499;SHT31;51087;55.718;21.122;2023-02-15T13:08:28;3.18;97.50
64499;SHT31;51087;55.718;21.122;2023-02-15T13:11:02;3.18;97.31
64499;SHT31;51087;55.718;21.122;2023-02-15T13:13:31;3.19;97.66
64499;SHT31;51087;55.718;21.122;2023-02-15T13:16:05;3.21;97.42
64499;SHT31;51087;55.718;21.122;2023-02-15T13:18:35;3.21;97.20
64499;SHT31;51087;55.718;21.122;2023-02-15T13:21:23;3.22;97.48
64499;SHT31;51087;55.718;21.122;2023-02-15T13:24:00;3.19;97.09
64499;SHT31;51087;55.718;21.122;2023-02-15T13:26:30;3.26;97.21
64499;SHT31;51087;55.718;21.122;2023-02-15T13:28:59;3.26;96.97
64499;SHT31;51087;55.718;21.122;2023-02-15T13:31:31;3.28;96.90
64499;SHT31;51087;55.718;21.122;2023-02-15T13:34:03;3.24;96.57
64499;SHT31;51087;55.718;21.122;2023-02-15T13:42:20;3.25;95.79
64499;SHT31;51087;55.718;21.122;2023-02-15T13:47:34;3.31;95.80
64499;SHT31;51087;55.718;21.122;2023-02-15T13:53:02;3.34;95.26
64499;SHT31;51087;55.718;21.122;2023-02-15T13:55:40;3.34;94.32
64499;SHT31;51087;55.718;21.122;2023-02-15T14:18:27;3.31;94.61
64499;SHT31;51087;55.718;21.122;2023-02-15T14:21:09;3.38;94.56
64499;SHT31;51087;55.718;21.122;2023-02-15T14:31:34;3.26;94.74
64499;SHT31;51087;55.718;21.122;2023-02-15T14:34:03;3.31;95.19
64499;SHT31;51087;55.718;21.122;2023-02-15T14:36:30;3.28;94.28
64499;SHT31;51087;55.718;21.122;2023-02-15T14:39:57;3.22;94.22
64499;SHT31;51087;55.718;21.122;2023-02-15T14:42:29;3.25;94.31
64499;SHT31;51087;55.718;21.122;2023-02-15T14:45:19;3.19;93.82
64499;SHT31;51087;55.718;21.122;2023-02-15T14:47:55;3.21;94.12
64499;SHT31;51087;55.718;21.122;2023-02-15T14:58:56;3.22;93.94
64499;SHT31;51087;55.718;21.122;2023-02-15T15:01:27;3.22;94.07
64499;SHT31;51087;55.718;21.122;2023-02-15T15:03:55;3.18;94.04
64499;SHT31;51087;55.718;21.122;2023-02-15T15:06:37;3.14;94.04
64499;SHT31;51087;55.718;21.122;2023-02-15T15:11:51;3.14;94.50
64499;SHT31;51087;55.718;21.122;2023-02-15T15:14:37;3.17;94.37
64499;SHT31;51087;55.718;21.122;2023-02-15T15:17:05;3.12;94.42
64499;SHT31;51087;55.718;21.122;2023-02-15T15:22:22;3.14;94.21
64499;SHT31;51087;55.718;21.122;2023-02-15T15:24:56;3.14;94.66
64499;SHT31;51087;55.718;21.122;2023-02-15T15:27:43;3.11;94.23
64499;SHT31;51087;55.718;21.122;2023-02-15T15:41:17;3.19;94.43
64499;SHT31;51087;55.718;21.122;2023-02-15T15:47:13;3.18;94.76
64499;SHT31;51087;55.718;21.122;2023-02-15T15:49:43;3.24;94.58
64499;SHT31;51087;55.718;21.122;2023-02-15T15:52:15;3.24;94.47
64499;SHT31;51087;55.718;21.122;2023-02-15T15:54:41;3.21;94.70
64499;SHT31;51087;55.718;21.122;2023-02-15T15:57:18;3.24;94.78
64499;SHT31;51087;55.718;21.122;2023-02-15T15:59:45;3.28;94.49
64499;SHT31;51087;55.718;21.122;2023-02-15T16:02:14;3.28;94.68
64499;SHT31;51087;55.718;21.122;2023-02-15T16:04:41;3.26;94.51
64499;SHT31;51087;55.718;21.122;2023-02-15T16:09:59;3.32;94.28
64499;SHT31;51087;55.718;21.122;2023-02-15T16:12:27;3.34;94.59
64499;SHT31;51087;55.718;21.122;2023-02-15T16:14:55;3.31;94.26
64499;SHT31;51087;55.718;21.122;2023-02-15T16:17:27;3.34;94.37
64499;SHT31;51087;55.718;21.122;2023-02-15T16:20:23;3.36;94.35
64499;SHT31;51087;55.718;21.122;2023-02-15T16:22:53;3.31;94.41
64499;SHT31;51087;55.718;21.122;2023-02-15T16:25:59;3.36;94.04
64499;SHT31;51087;55.718;21.122;2023-02-15T16:28:29;3.34;94.23
64499;SHT31;51087;55.718;21.122;2023-02-15T16:31:10;3.36;94.34
64499;SHT31;51087;55.718;21.122;2023-02-15T16:33:38;3.36;94.44
64499;SHT31;51087;55.718;21.122;2023-02-15T16:36:05;3.34;94.64
64499;SHT31;51087;55.718;21.122;2023-02-15T16:41:23;3.32;94.78
64499;SHT31;51087;55.718;21.122;2023-02-15T16:43:51;3.34;94.53
64499;SHT31;51087;55.718;21.122;2023-02-15T16:46:38;3.34;94.72
64499;SHT31;51087;55.718;21.122;2023-02-15T16:49:14;3.34;94.91
64499;SHT31;51087;55.718;21.122;2023-02-15T16:51:42;3.32;94.39
64499;SHT31;51087;55.718;21.122;2023-02-15T16:54:16;3.34;94.40
64499;SHT31;51087;55.718;21.122;2023-02-15T16:56:44;3.31;94.60
64499;SHT31;51087;55.718;21.122;2023-02-15T16:59:22;3.31;94.54
64499;SHT31;51087;55.718;21.122;2023-02-15T17:01:51;3.32;94.54
64499;SHT31;51087;55.718;21.122;2023-02-15T17:07:15;3.29;94.76
64499;SHT31;51087;55.718;21.122;2023-02-15T17:09:53;3.25;94.55
64499;SHT31;51087;55.718;21.122;2023-02-15T17:18:06;3.21;94.84
64499;SHT31;51087;55.718;21.122;2023-02-15T17:20:37;3.25;94.48
64499;SHT31;51087;55.718;21.122;2023-02-15T17:23:04;3.29;94.36
64499;SHT31;51087;55.718;21.122;2023-02-15T17:25:37;3.29;94.46
64499;SHT31;51087;55.718;21.122;2023-02-15T17:28:05;3.28;94.33
64499;SHT31;51087;55.718;21.122;2023-02-15T17:30:39;3.29;93.94
64499;SHT31;51087;55.718;21.122;2023-02-15T17:33:20;3.29;93.52
64499;SHT31;51087;55.718;21.122;2023-02-15T17:36:05;3.31;94.03
64499;SHT31;51087;55.718;21.122;2023-02-15T17:38:34;3.26;93.54
64499;SHT31;51087;55.718;21.122;2023-02-15T17:41:00;3.26;94.20
64499;SHT31;51087;55.718;21.122;2023-02-15T17:43:25;3.32;94.01
64499;SHT31;51087;55.718;21.122;2023-02-15T17:45:51;3.26;93.98
64499;SHT31;51087;55.718;21.122;2023-02-15T17:48:22;3.28;93.88
64499;SHT31;51087;55.718;21.122;2023-02-15T17:50:49;3.31;93.59
64499;SHT31;51087;55.718;21.122;2023-02-15T17:53:16;3.34;93.40
64499;SHT31;51087;55.718;21.122;2023-02-15T17:55:43;3.34;93.16
64499;SHT31;51087;55.718;21.122;2023-02-15T17:58:13;3.31;93.05
64499;SHT31;51087;55.718;21.122;2023-02-15T18:00:54;3.31;93.40
64499;SHT31;51087;55.718;21.122;2023-02-15T18:03:42;3.35;93.09
64499;SHT31;51087;55.718;21.122;2023-02-15T18:06:26;3.32;93.11
64499;SHT31;51087;55.718;21.122;2023-02-15T18:09:16;3.36;93.49
64499;SHT31;51087;55.718;21.122;2023-02-15T18:12:00;3.31;94.08
64499;SHT31;51087;55.718;21.122;2023-02-15T18:14:26;3.25;94.74
64499;SHT31;51087;55.718;21.122;2023-02-15T18:16:52;3.21;95.13
64499;SHT31;51087;55.718;21.122;2023-02-15T18:19:21;3.15;95.57
64499;SHT31;51087;55.718;21.122;2023-02-15T18:21:48;3.14;95.84
64499;SHT31;51087;55.718;21.122;2023-02-15T18:24:21;3.05;96.33
64499;SHT31;51087;55.718;21.122;2023-02-15T18:26:48;3.05;96.06
64499;SHT31;51087;55.718;21.122;2023-02-15T18:29:14;3.04;95.87
64499;SHT31;51087;55.718;21.122;2023-02-15T18:31:40;3.05;95.89
64499;SHT31;51087;55.718;21.122;2023-02-15T18:34:14;3.07;95.99
64499;SHT31;51087;55.718;21.122;2023-02-15T18:36:44;3.04;95.62
64499;SHT31;51087;55.718;21.122;2023-02-15T18:39:24;3.01;95.62
64499;SHT31;51087;55.718;21.122;2023-02-15T18:41:51;3.05;95.74
64499;SHT31;51087;55.718;21.122;2023-02-15T18:44:18;3.08;95.42
64499;SHT31;51087;55.718;21.122;2023-02-15T18:46:43;3.07;95.26
64499;SHT31;51087;55.718;21.122;2023-02-15T18:49:08;3.09;95.27
64499;SHT31;51087;55.718;21.122;2023-02-15T18:51:34;3.08;94.71
64499;SHT31;51087;55.718;21.122;2023-02-15T18:54:05;3.11;94.83
64499;SHT31;51087;55.718;21.122;2023-02-15T18:56:36;3.09;95.07
64499;SHT31;51087;55.718;21.122;2023-02-15T18:59:02;3.11;94.99
64499;SHT31;51087;55.718;21.122;2023-02-15T19:01:28;3.07;96.00
64499;SHT31;51087;55.718;21.122;2023-02-15T19:03:54;3.05;96.10
64499;SHT31;51087;55.718;21.122;2023-02-15T19:06:20;3.03;95.89